Time;durP1;ratioP1;P1;durP2;ratioP2;P2;SDS_P1;SDS_P2;PMS_P1;PMS_P2;Temp;Humidity;BMP_temperature;BMP_pressure;BME280_temperature;BME280_humidity;BME280_pressure;Samples;Min_cycle;Max_cycle;Signal;HPM_P1;HPM_P2
2022/01/27 00:00:43;;;;;;;42.67;22.88;;;-2.30;99.90;;;;;;6122063;29;20399;-79
2022/01/27 00:03:50;;;;;;;44.17;23.17;;;-0.90;99.90;;;;;;6126127;29;20063;-82
2022/01/27 00:06:51;;;;;;;45.10;23.85;;;-2.80;99.90;;;;;;6123291;29;20490;-82
2022/01/27 00:10:11;;;;;;;46.85;23.65;;;-1.40;99.90;;;;;;6123378;29;20087;-80
2022/01/27 00:13:14;;;;;;;44.25;22.45;;;-1.40;99.90;;;;;;6144019;29;20524;-79
2022/01/27 00:16:20;;;;;;;41.65;21.92;;;-0.40;99.90;;;;;;6129569;29;20034;-79
2022/01/27 00:19:20;;;;;;;42.10;23.50;;;-0.70;99.90;;;;;;6145109;29;20031;-80
2022/01/27 00:22:21;;;;;;;46.45;23.33;;;-0.90;99.90;;;;;;6144805;28;20413;-81
2022/01/27 00:25:22;;;;;;;46.35;24.80;;;-1.40;99.90;;;;;;6129326;29;20030;-80
2022/01/27 00:28:22;;;;;;;45.30;23.45;;;-0.10;99.90;;;;;;6128817;29;20050;-80
2022/01/27 00:31:23;;;;;;;40.28;21.90;;;-2.20;99.90;;;;;;6129141;29;20038;-82
2022/01/27 00:34:24;;;;;;;43.08;23.20;;;-0.80;99.90;;;;;;6145004;28;20031;-78
2022/01/27 00:37:25;;;;;;;44.35;23.67;;;-2.50;99.90;;;;;;6128721;28;20035;-79
2022/01/27 00:40:25;;;;;;;44.85;23.10;;;-1.10;99.90;;;;;;6144796;28;20027;-80
2022/01/27 00:43:26;;;;;;;41.67;23.88;;;-2.30;99.90;;;;;;6129109;29;20043;-78
2022/01/27 00:46:27;;;;;;;47.35;24.80;;;-1.00;99.90;;;;;;6146598;28;20054;-79
2022/01/27 00:49:27;;;;;;;46.90;24.60;;;-2.40;99.90;;;;;;6149476;28;20035;-80
2022/01/27 00:52:36;;;;;;;43.15;24.15;;;-0.50;99.90;;;;;;6149548;29;20035;-79
2022/01/27 00:55:41;;;;;;;44.17;23.30;;;-2.70;99.90;;;;;;6134647;28;20039;-79
2022/01/27 01:01:51;;;;;;;45.20;23.33;;;-2.50;99.90;;;;;;6149350;28;20043;-79
2022/01/27 01:05:07;;;;;;;43.28;22.88;;;-1.60;99.90;;;;;;6134228;29;20031;-79
2022/01/27 01:09:03;;;;;;;46.60;23.38;;;-2.60;99.90;;;;;;6149278;29;21031;-80
2022/01/27 01:14:39;;;;;;;41.95;22.15;;;-2.90;99.90;;;;;;6156841;28;20381;-80
2022/01/27 01:17:56;;;;;;;46.53;23.65;;;-2.40;99.90;;;;;;6141776;28;20109;-80
2022/01/27 01:33:44;;;;;;;44.90;24.25;;;-1.20;99.90;;;;;;6157275;28;20129;-83
2022/01/27 01:36:53;;;;;;;;;;;-1.90;99.90;;;;;;6157350;28;20381;-82
2022/01/27 01:39:54;;;;;;;41.00;21.55;;;-2.10;99.90;;;;;;6157171;28;20475;-82
2022/01/27 01:42:54;;;;;;;43.50;22.00;;;-2.50;99.90;;;;;;6156774;28;20037;-82
2022/01/27 01:45:55;;;;;;;43.92;22.63;;;0.10;99.90;;;;;;6139658;28;20030;-80
2022/01/27 01:48:56;;;;;;;40.05;22.38;;;-2.50;99.90;;;;;;6156175;28;20050;-81
2022/01/27 01:51:59;;;;;;;45.28;23.38;;;-2.50;99.90;;;;;;6139793;28;20141;-82
2022/01/27 01:54:59;;;;;;;39.97;21.40;;;-2.50;99.90;;;;;;6140349;28;20034;-81
2022/01/27 01:58:00;;;;;;;44.00;23.45;;;-2.60;99.90;;;;;;6155755;28;20031;-82
2022/01/27 02:01:01;;;;;;;46.65;23.58;;;-2.60;99.90;;;;;;6156125;28;20034;-80
2022/01/27 02:04:06;;;;;;;42.20;22.13;;;-2.80;99.90;;;;;;6140031;28;20042;-80
2022/01/27 02:07:16;;;;;;;47.45;22.88;;;-2.50;99.90;;;;;;6140438;28;20477;-80
2022/01/27 02:19:59;;;;;;;38.33;22.60;;;-2.60;99.90;;;;;;6158357;28;20031;-80
2022/01/27 02:22:59;;;;;;;41.35;22.73;;;-1.50;99.90;;;;;;6139818;28;20118;-81
2022/01/27 02:26:00;;;;;;;39.33;21.42;;;-2.90;99.90;;;;;;6139979;28;20093;-80
2022/01/27 02:29:00;;;;;;;44.05;21.48;;;-2.40;99.90;;;;;;6155558;28;20034;-82
2022/01/27 02:32:01;;;;;;;40.65;21.35;;;-1.90;99.90;;;;;;6155074;28;20038;-81
2022/01/27 02:35:03;;;;;;;40.17;22.52;;;-2.30;99.90;;;;;;6155397;28;20073;-82
2022/01/27 02:38:05;;;;;;;42.43;22.57;;;-2.20;99.90;;;;;;6138977;28;20042;-83
2022/01/27 02:41:06;;;;;;;38.08;21.30;;;-2.10;99.90;;;;;;6154884;28;20396;-81
2022/01/27 02:44:06;;;;;;;36.45;21.65;;;-1.20;99.90;;;;;;6154184;28;20130;-82
2022/01/27 02:47:07;;;;;;;38.03;20.08;;;-2.70;99.90;;;;;;6154929;28;20038;-78
2022/01/27 02:50:08;;;;;;;38.15;21.30;;;-1.20;99.90;;;;;;6138268;28;20389;-82
2022/01/27 02:53:08;;;;;;;31.48;18.80;;;-2.10;99.90;;;;;;6154759;28;20074;-81
2022/01/27 02:56:09;;;;;;;38.20;20.75;;;-2.20;99.90;;;;;;6154494;28;20081;-79
2022/01/27 02:59:10;;;;;;;37.75;20.65;;;-2.60;99.90;;;;;;6154736;28;20492;-81
2022/01/27 03:02:11;;;;;;;36.70;21.38;;;-2.20;99.90;;;;;;6138554;28;20031;-82
2022/01/27 03:05:11;;;;;;;38.22;20.98;;;-1.70;99.90;;;;;;6154321;28;20042;-82
2022/01/27 03:08:12;;;;;;;39.05;20.70;;;-0.70;99.90;;;;;;6138010;28;20081;-83
2022/01/27 03:11:15;;;;;;;34.33;20.05;;;-2.30;99.90;;;;;;6153725;28;20157;-82
2022/01/27 03:14:18;;;;;;;39.85;21.60;;;-2.90;99.90;;;;;;6154378;28;20555;-81
2022/01/27 03:17:19;;;;;;;37.03;20.10;;;-1.10;99.90;;;;;;6137749;28;20093;-81
2022/01/27 03:20:19;;;;;;;42.40;21.35;;;-0.70;99.90;;;;;;6138181;28;20125;-82
2022/01/27 03:23:20;;;;;;;39.33;21.20;;;-2.60;99.90;;;;;;6153685;28;20030;-81
2022/01/27 03:26:21;;;;;;;37.53;20.95;;;-2.60;99.90;;;;;;6138036;28;20029;-82
2022/01/27 03:29:22;;;;;;;38.40;21.92;;;-2.90;99.90;;;;;;6153948;28;20027;-81
2022/01/27 03:32:25;;;;;;;36.20;19.55;;;-2.50;99.90;;;;;;6154037;28;20703;-83
2022/01/27 03:35:26;;;;;;;38.60;20.58;;;-1.60;99.90;;;;;;6153774;28;20035;-81
2022/01/27 03:38:26;;;;;;;34.17;19.60;;;-2.30;99.90;;;;;;6153784;28;20030;-82
2022/01/27 03:41:32;;;;;;;34.88;19.83;;;-2.40;99.90;;;;;;6137803;28;20027;-82
2022/01/27 03:44:32;;;;;;;41.53;21.70;;;-2.80;99.90;;;;;;6154332;28;20027;-81
2022/01/27 03:47:33;;;;;;;35.67;20.25;;;-2.20;99.90;;;;;;6153877;28;20045;-82
2022/01/27 03:50:33;;;;;;;37.67;19.98;;;-2.60;99.90;;;;;;6153463;28;20027;-82
2022/01/27 03:53:34;;;;;;;43.10;21.60;;;-2.70;99.90;;;;;;6153825;28;20039;-82
2022/01/27 03:56:35;;;;;;;41.17;20.45;;;-0.30;99.90;;;;;;6137233;28;20113;-83
2022/01/27 03:59:35;;;;;;;36.35;19.63;;;-2.60;99.90;;;;;;6153531;28;20026;-82
2022/01/27 04:02:39;;;;;;;35.95;20.23;;;-1.10;99.90;;;;;;6153240;28;20440;-80
2022/01/27 04:05:43;;;;;;;39.42;21.10;;;-2.60;99.90;;;;;;6153846;28;20035;-81
2022/01/27 04:08:44;;;;;;;33.92;19.80;;;-2.50;99.90;;;;;;6153959;28;20031;-82
2022/01/27 04:11:44;;;;;;;35.00;19.27;;;-1.00;99.90;;;;;;6136586;28;20496;-82
2022/01/27 04:14:45;;;;;;;34.47;20.40;;;-1.70;99.90;;;;;;6139171;28;20030;-81
2022/01/27 04:17:46;;;;;;;37.70;19.50;;;-2.50;99.90;;;;;;6153160;28;20038;-80
2022/01/27 04:20:46;;;;;;;38.25;19.65;;;-0.30;99.90;;;;;;6152031;28;20066;-81
2022/01/27 04:23:48;;;;;;;39.10;21.30;;;-2.20;99.90;;;;;;6137062;28;20030;-83
2022/01/27 04:26:56;;;;;;;36.50;20.57;;;-2.50;99.90;;;;;;6153369;28;20026;-81
2022/01/27 04:29:57;;;;;;;38.85;20.25;;;-2.70;99.90;;;;;;6152896;28;20023;-80
2022/01/27 04:33:00;;;;;;;40.22;20.50;;;-2.70;99.90;;;;;;6136935;28;20109;-82
2022/01/27 04:36:06;;;;;;;45.58;21.58;;;-2.70;99.90;;;;;;6153485;28;20437;-80
2022/01/27 04:39:26;;;;;;;40.70;23.30;;;-2.00;99.90;;;;;;6137614;28;20031;-80
2022/01/27 04:42:49;;;;;;;36.75;20.40;;;-3.10;99.90;;;;;;6153222;28;20145;-81
2022/01/27 04:49:02;;;;;;;42.55;21.83;;;-2.90;99.90;;;;;;6154464;28;20045;-81
2022/01/27 04:52:04;;;;;;;45.47;22.90;;;-3.00;99.90;;;;;;6137218;28;20043;-81
2022/01/27 04:55:09;;;;;;;45.72;21.10;;;-2.90;99.90;;;;;;6152711;28;20034;-80
2022/01/27 04:58:17;;;;;;;41.22;20.10;;;-2.90;99.90;;;;;;6153450;28;20058;-81
2022/01/27 05:01:19;;;;;;;40.08;21.70;;;-1.80;99.90;;;;;;6153517;28;20023;-81
2022/01/27 05:04:23;;;;;;;;;;;-3.20;99.90;;;;;;6153142;28;20035;-81
2022/01/27 05:07:23;;;;;;;;;;;-3.10;99.90;;;;;;6137268;28;19921;-81
2022/01/27 05:10:28;;;;;;;39.80;20.13;;;-3.00;99.90;;;;;;6136237;28;19906;-81
2022/01/27 05:13:36;;;;;;;42.67;20.90;;;-3.20;99.90;;;;;;6152286;28;20043;-82
2022/01/27 05:16:36;;;;;;;41.72;21.55;;;-3.20;99.90;;;;;;6151202;28;20031;-82
2022/01/27 05:19:37;;;;;;;51.25;23.90;;;-2.40;99.90;;;;;;6136459;28;20031;-81
2022/01/27 05:22:37;;;;;;;50.80;23.08;;;-3.20;99.90;;;;;;6152756;28;20456;-82
2022/01/27 05:25:38;;;;;;;55.42;25.58;;;-1.50;99.90;;;;;;6152707;28;20026;-82
2022/01/27 05:28:39;;;;;;;39.65;20.98;;;-3.00;99.90;;;;;;6152191;28;20031;-81
2022/01/27 05:31:40;;;;;;;38.00;20.08;;;-1.00;99.90;;;;;;6152474;28;20027;-81
2022/01/27 05:34:40;;;;;;;36.95;20.65;;;-2.30;99.90;;;;;;6156386;28;20038;-80
2022/01/27 05:37:41;;;;;;;40.28;20.73;;;-1.40;99.90;;;;;;6156079;28;20053;-84
2022/01/27 05:40:42;;;;;;;37.78;20.98;;;-2.20;99.90;;;;;;6155710;28;20109;-79
2022/01/27 05:43:43;;;;;;;38.38;20.27;;;-1.80;99.90;;;;;;6140054;28;20039;-79
2022/01/27 05:46:43;;;;;;;39.20;19.77;;;-1.70;99.90;;;;;;6156406;28;20027;-81
2022/01/27 05:49:44;;;;;;;36.78;19.33;;;-0.90;99.90;;;;;;6156118;28;20105;-81
2022/01/27 05:52:45;;;;;;;35.80;19.95;;;-1.00;99.90;;;;;;6156017;28;20034;-82
2022/01/27 05:55:45;;;;;;;38.38;19.42;;;-2.00;99.90;;;;;;6155244;28;20034;-79
2022/01/27 05:58:46;;;;;;;35.70;18.88;;;-3.40;99.90;;;;;;6140067;28;20409;-82
2022/01/27 06:01:46;;;;;;;35.85;19.02;;;-1.80;99.90;;;;;;6139525;28;20049;-81
2022/01/27 06:04:47;;;;;;;32.88;18.98;;;-2.40;99.90;;;;;;6140011;28;20046;-84
2022/01/27 06:07:47;;;;;;;37.25;20.23;;;-1.00;99.90;;;;;;6155386;28;20034;-80
2022/01/27 06:10:50;;;;;;;34.67;18.10;;;-1.70;99.90;;;;;;6138012;28;20046;-81
2022/01/27 06:13:51;;;;;;;33.47;18.38;;;-2.90;99.90;;;;;;6155449;28;20043;-82
2022/01/27 06:16:51;;;;;;;36.85;19.08;;;-1.40;99.90;;;;;;6153584;28;20043;-80
2022/01/27 06:19:55;;;;;;;31.65;17.90;;;-3.20;99.90;;;;;;6155311;28;20027;-80
2022/01/27 06:22:58;;;;;;;32.45;18.23;;;-1.50;99.90;;;;;;6155052;28;20034;-79
2022/01/27 06:26:00;;;;;;;31.02;18.55;;;-2.10;99.90;;;;;;6139681;28;20034;-80
2022/01/27 06:29:00;;;;;;;33.42;19.48;;;-1.40;99.90;;;;;;6139125;28;20089;-81
2022/01/27 06:32:04;;;;;;;37.20;18.92;;;-2.60;99.90;;;;;;6139192;28;20133;-81
2022/01/27 06:35:06;;;;;;;39.83;20.05;;;-2.40;99.90;;;;;;6153799;28;20523;-82
2022/01/27 06:38:07;;;;;;;42.17;20.40;;;-3.20;99.90;;;;;;6154203;28;20397;-81
2022/01/27 06:41:07;;;;;;;36.35;19.58;;;-3.30;99.90;;;;;;6114080;28;20035;-81
2022/01/27 06:44:08;;;;;;;38.33;18.58;;;-3.90;99.90;;;;;;6154263;28;20078;-81
2022/01/27 06:47:08;;;;;;;34.97;18.50;;;-2.70;99.90;;;;;;6155173;28;20034;-83
2022/01/27 06:50:09;;;;;;;39.05;20.88;;;-3.10;99.90;;;;;;6138797;28;20485;-84
2022/01/27 06:53:10;;;;;;;35.92;19.27;;;-1.60;99.90;;;;;;6139301;28;20378;-83
2022/01/27 06:56:10;;;;;;;35.97;18.38;;;-2.00;99.90;;;;;;6138075;28;20039;-81
2022/01/27 06:59:11;;;;;;;34.08;19.10;;;-3.00;99.90;;;;;;6154798;28;20104;-81
2022/01/27 07:02:11;;;;;;;39.92;19.75;;;-2.90;99.90;;;;;;6154588;28;20041;-80
2022/01/27 07:05:15;;;;;;;35.22;17.48;;;-1.70;99.90;;;;;;6154835;28;20030;-82
2022/01/27 07:08:15;;;;;;;34.40;19.58;;;-1.50;99.90;;;;;;6155605;28;20126;-80
2022/01/27 07:11:16;;;;;;;48.15;22.50;;;-1.00;99.90;;;;;;6137826;28;20525;-80
2022/01/27 07:14:17;;;;;;;58.78;26.30;;;-2.60;99.90;;;;;;6152908;28;20054;-83
2022/01/27 07:17:19;;;;;;;34.78;18.67;;;0.40;99.90;;;;;;6153002;28;20031;-80
2022/01/27 07:20:20;;;;;;;29.80;17.90;;;1.20;99.90;;;;;;6153737;28;20437;-80
2022/01/27 07:23:21;;;;;;;29.58;17.98;;;-0.80;99.90;;;;;;6135829;28;20031;-82
2022/01/27 07:26:25;;;;;;;31.00;17.10;;;-0.90;99.90;;;;;;6137637;28;20536;-79
2022/01/27 07:29:25;;;;;;;32.30;17.85;;;0.20;99.90;;;;;;6153262;28;20027;-80
2022/01/27 07:32:26;;;;;;;37.53;18.58;;;0.00;99.90;;;;;;6153853;28;20134;-80
2022/01/27 07:35:27;;;;;;;38.10;19.00;;;-0.30;99.90;;;;;;6153143;28;20097;-81
2022/01/27 07:38:27;;;;;;;32.80;18.13;;;-2.80;99.90;;;;;;6153671;28;20030;-79
2022/01/27 07:41:28;;;;;;;32.80;18.48;;;-2.50;99.90;;;;;;6153299;28;20121;-79
2022/01/27 07:44:28;;;;;;;36.65;19.00;;;-3.40;99.90;;;;;;6153656;28;20201;-79
2022/01/27 07:47:29;;;;;;;34.47;18.75;;;-3.10;99.90;;;;;;6153305;28;20034;-79
2022/01/27 07:50:30;;;;;;;36.92;19.40;;;-3.10;99.90;;;;;;6153221;28;20035;-80
2022/01/27 07:53:31;;;;;;;36.30;19.08;;;-3.50;99.90;;;;;;6153236;28;20035;-80
2022/01/27 07:56:32;;;;;;;36.45;19.85;;;-3.30;99.90;;;;;;6151985;28;20496;-79
2022/01/27 07:59:33;;;;;;;36.22;19.15;;;;;;;;;;6136558;28;20118;-79
2022/01/27 08:02:33;;;;;;;38.17;19.88;;;-3.20;99.90;;;;;;6153395;28;20038;-80
2022/01/27 08:05:34;;;;;;;39.55;20.40;;;-3.10;99.90;;;;;;6152511;28;20033;-80
2022/01/27 08:08:34;;;;;;;39.30;20.20;;;-3.30;99.90;;;;;;6152753;28;20041;-84
2022/01/27 08:11:36;;;;;;;38.10;20.13;;;-3.50;99.90;;;;;;6136825;28;20050;-80
2022/01/27 08:14:37;;;;;;;42.13;20.33;;;-3.30;99.90;;;;;;6153159;28;20030;-79
2022/01/27 08:17:39;;;;;;;42.95;21.70;;;;;;;;;;6152045;28;20142;-81
2022/01/27 08:20:40;;;;;;;57.90;29.27;;;-3.10;99.90;;;;;;6154507;28;20489;-83
2022/01/27 08:23:43;;;;;;;89.95;42.00;;;-3.40;99.90;;;;;;6154876;28;20392;-84
2022/01/27 08:26:46;;;;;;;;;;;-3.10;99.90;;;;;;6138988;28;20496;-81
2022/01/27 08:29:53;;;;;;;76.88;36.15;;;0.10;99.90;;;;;;6137548;28;19906;-79
2022/01/27 08:33:00;;;;;;;51.70;24.60;;;-1.30;99.90;;;;;;6137720;28;20055;-85
2022/01/27 08:36:01;;;;;;;46.38;22.23;;;-1.40;99.90;;;;;;6137544;28;20031;-82
2022/01/27 08:39:01;;;;;;;52.60;26.40;;;-2.70;99.90;;;;;;6153093;28;20034;-82
2022/01/27 08:42:05;;;;;;;57.17;28.05;;;-2.60;99.90;;;;;;6135552;28;20458;-82
2022/01/27 08:45:16;;;;;;;48.13;23.85;;;-2.70;99.90;;;;;;6121644;28;20488;-83
2022/01/27 08:48:19;;;;;;;41.72;22.10;;;-2.80;99.90;;;;;;6137085;28;20027;-85
2022/01/27 08:51:21;;;;;;;49.28;22.92;;;-2.70;99.90;;;;;;6153169;28;20070;-82
2022/01/27 08:54:22;;;;;;;48.58;25.75;;;-1.90;99.90;;;;;;6152364;28;20050;-80
2022/01/27 08:57:23;;;;;;;55.55;24.65;;;-1.20;99.90;;;;;;6152595;28;20066;-80
2022/01/27 09:00:24;;;;;;;51.10;23.75;;;-1.00;99.90;;;;;;6152011;28;20033;-83
2022/01/27 09:03:24;;;;;;;51.20;25.23;;;0.00;99.90;;;;;;6152166;28;20030;-80
2022/01/27 09:06:28;;;;;;;50.42;23.88;;;-0.40;99.90;;;;;;6152589;28;20034;-80
2022/01/27 09:09:29;;;;;;;39.75;21.63;;;-0.50;99.90;;;;;;6140695;28;20374;-81
2022/01/27 09:12:29;;;;;;;44.80;22.45;;;-0.70;99.90;;;;;;6156702;28;20051;-80
2022/01/27 09:15:30;;;;;;;43.75;21.02;;;-1.60;99.90;;;;;;6155880;28;20041;-82
2022/01/27 09:18:32;;;;;;;40.97;20.67;;;-1.40;99.90;;;;;;6140762;28;20054;-81
2022/01/27 09:21:42;;;;;;;47.28;24.85;;;-0.30;99.90;;;;;;6140167;28;20039;-81
2022/01/27 09:25:11;;;;;;;46.25;24.00;;;-0.20;99.90;;;;;;6149352;28;20117;-82
2022/01/27 09:28:06;;;;;;;42.40;22.53;;;0.30;99.90;;;;;;6148663;28;20184;-80
2022/01/27 09:31:07;;;;;;;43.00;21.70;;;0.60;99.90;;;;;;6156548;28;20362;-80
2022/01/27 09:34:07;;;;;;;41.97;20.15;;;-1.00;99.90;;;;;;6139318;28;20050;-81
2022/01/27 09:37:08;;;;;;;46.00;22.45;;;-0.10;99.90;;;;;;6139567;28;20126;-81
2022/01/27 09:40:10;;;;;;;45.05;22.30;;;-0.70;99.90;;;;;;6155836;28;20042;-81
2022/01/27 09:43:10;;;;;;;51.40;22.83;;;-1.50;99.90;;;;;;6123732;28;20062;-81
2022/01/27 09:46:13;;;;;;;51.63;23.20;;;-1.10;99.90;;;;;;6155812;28;20483;-82
2022/01/27 09:49:19;;;;;;;50.72;24.52;;;-1.00;99.90;;;;;;6155854;28;20058;-82
2022/01/27 09:52:20;;;;;;;45.92;23.13;;;-0.90;99.90;;;;;;6156721;28;20454;-82
2022/01/27 09:55:21;;;;;;;50.17;23.45;;;-0.90;99.90;;;;;;6139294;28;20030;-82
2022/01/27 09:58:21;;;;;;;51.50;24.63;;;0.60;99.90;;;;;;6155902;28;20381;-82
2022/01/27 10:01:22;;;;;;;45.88;24.15;;;-0.90;99.90;;;;;;6154764;28;20126;-82
2022/01/27 10:04:25;;;;;;;49.40;23.92;;;1.00;99.90;;;;;;6139601;28;20046;-82
2022/01/27 10:07:28;;;;;;;50.80;25.75;;;-0.90;99.90;;;;;;6155385;28;20035;-81
2022/01/27 10:10:34;;;;;;;43.83;23.77;;;0.10;99.90;;;;;;6139852;28;20039;-79
2022/01/27 10:13:39;;;;;;;48.20;24.08;;;-0.60;99.90;;;;;;6154802;28;20062;-80
2022/01/27 10:16:42;;;;;;;44.10;22.92;;;0.20;99.90;;;;;;6155773;28;20065;-82
2022/01/27 10:19:42;;;;;;;51.20;24.75;;;0.50;99.90;;;;;;6139079;28;20106;-82
2022/01/27 10:22:50;;;;;;;47.53;23.92;;;-0.20;99.90;;;;;;6138302;28;20073;-82
2022/01/27 10:25:57;;;;;;;49.45;25.48;;;1.40;99.90;;;;;;6155121;28;20093;-82
2022/01/27 10:29:07;;;;;;;50.83;24.75;;;-0.80;99.90;;;;;;6139636;28;20034;-82
2022/01/27 10:32:08;;;;;;;47.38;23.27;;;0.90;99.90;;;;;;6156391;28;20045;-81
2022/01/27 10:35:09;;;;;;;46.45;22.70;;;-0.30;99.90;;;;;;6153441;28;20030;-79
2022/01/27 10:38:12;;;;;;;44.72;22.45;;;0.30;99.90;;;;;;6138740;28;20102;-82
2022/01/27 10:41:12;;;;;;;;;;;-0.30;99.90;;;;;;6155472;28;20031;-81
2022/01/27 10:44:16;;;;;;;41.42;21.45;;;-0.60;99.90;;;;;;6154549;28;20317;-80
2022/01/27 10:47:21;;;;;;;49.72;23.30;;;-0.20;99.90;;;;;;6138412;28;20485;-80
2022/01/27 10:50:21;;;;;;;45.08;23.00;;;-0.20;99.90;;;;;;6154290;28;20065;-82
2022/01/27 10:53:23;;;;;;;41.80;20.77;;;1.50;99.90;;;;;;6153987;28;20039;-82
2022/01/27 10:56:36;;;;;;;42.40;22.40;;;-0.10;99.90;;;;;;6154093;28;20496;-78
2022/01/27 10:59:37;;;;;;;43.90;23.17;;;-0.10;99.90;;;;;;6154249;28;20034;-78
2022/01/27 11:10:22;;;;;;;37.58;21.58;;;0.90;99.90;;;;;;6592328;23;20047;-80
2022/01/27 11:13:24;;;;;;;39.83;20.85;;;-0.10;99.90;;;;;;6114964;28;20069;-79
2022/01/27 11:16:34;;;;;;;39.13;21.02;;;0.00;99.90;;;;;;6114750;29;20027;-79
2022/01/27 11:26:26;;;;;;;42.00;22.02;;;0.40;99.90;;;;;;6074519;29;20035;-80
2022/01/27 11:29:26;;;;;;;44.88;21.10;;;0.90;99.90;;;;;;6114215;28;20031;-80
2022/01/27 11:32:36;;;;;;;42.67;23.65;;;0.40;99.90;;;;;;6131073;28;20081;-80
2022/01/27 11:35:39;;;;;;;44.78;22.88;;;0.10;99.90;;;;;;6115546;28;20035;-80
2022/01/27 11:38:42;;;;;;;;;;;2.30;99.90;;;;;;6113637;28;20582;-81
2022/01/27 11:41:43;;;;;;;;;;;0.50;99.90;;;;;;6129016;28;19954;-77
2022/01/27 11:44:45;;;;;;;44.15;23.45;;;0.70;99.90;;;;;;6152625;28;19920;-80
2022/01/27 11:47:53;;;;;;;42.25;21.50;;;1.40;99.90;;;;;;6115380;29;20035;-79
2022/01/27 11:51:07;;;;;;;44.78;23.75;;;0.30;99.90;;;;;;6127504;29;20023;-77
2022/01/27 11:54:25;;;;;;;49.67;24.83;;;0.30;99.90;;;;;;6128810;29;20039;-78
2022/01/27 11:57:39;;;;;;;48.65;23.60;;;0.90;99.90;;;;;;6114114;29;20031;-79
2022/01/27 12:00:40;;;;;;;44.83;22.73;;;0.70;99.90;;;;;;6113548;28;20027;-79
2022/01/27 12:04:00;;;;;;;40.50;20.90;;;0.20;99.90;;;;;;6129288;29;20039;-79
2022/01/27 12:07:01;;;;;;;47.70;23.27;;;0.20;99.90;;;;;;6131805;29;20046;-79
2022/01/27 12:10:27;;;;;;;67.93;32.05;;;-0.10;99.90;;;;;;6120831;29;20059;-80
2022/01/27 12:14:02;;;;;;;43.13;23.65;;;0.50;99.90;;;;;;6107607;29;20502;-79
2022/01/27 12:17:07;;;;;;;46.60;22.42;;;0.10;99.90;;;;;;6096320;29;20103;-78
2022/01/27 12:20:09;;;;;;;43.58;23.05;;;0.30;99.90;;;;;;6099438;29;20119;-79
2022/01/27 12:23:14;;;;;;;42.58;22.77;;;0.50;99.90;;;;;;6099425;29;20032;-78
2022/01/27 12:26:15;;;;;;;46.25;22.95;;;0.70;99.90;;;;;;6108088;29;20023;-78
2022/01/27 12:29:32;;;;;;;41.72;20.88;;;0.70;99.90;;;;;;6101151;29;20075;-78
2022/01/27 12:32:32;;;;;;;46.13;23.08;;;0.70;99.90;;;;;;6108424;29;20036;-78
2022/01/27 12:35:33;;;;;;;38.63;20.92;;;0.40;99.90;;;;;;6103963;29;20099;-78
2022/01/27 12:38:37;;;;;;;42.25;22.15;;;0.30;99.90;;;;;;6086342;29;20040;-78
2022/01/27 12:41:38;;;;;;;43.67;21.45;;;0.10;99.90;;;;;;6092017;29;20107;-80
2022/01/27 12:44:42;;;;;;;44.83;23.15;;;0.40;99.90;;;;;;6086900;29;20475;-78
2022/01/27 12:47:44;;;;;;;45.65;23.60;;;1.10;99.90;;;;;;6103663;29;20056;-77
2022/01/27 12:50:46;;;;;;;40.70;22.52;;;0.90;99.90;;;;;;6102438;29;20386;-79
2022/01/27 12:54:02;;;;;;;47.13;23.73;;;-0.40;99.90;;;;;;6102322;29;20043;-78
2022/01/27 12:57:03;;;;;;;49.70;23.65;;;-1.10;99.90;;;;;;6107159;29;20122;-77
2022/01/27 13:00:05;;;;;;;49.72;24.70;;;-0.50;99.90;;;;;;6087870;29;20032;-78
2022/01/27 13:03:06;;;;;;;47.95;23.38;;;-0.40;99.90;;;;;;6102108;29;20059;-77
2022/01/27 13:06:06;;;;;;;50.40;24.45;;;-0.80;99.90;;;;;;6102266;29;20043;-77
2022/01/27 13:09:13;;;;;;;52.78;25.90;;;-0.20;99.90;;;;;;6111409;29;20036;-77
2022/01/27 13:12:18;;;;;;;49.08;24.00;;;0.00;99.90;;;;;;6132759;29;20383;-79
2022/01/27 13:15:22;;;;;;;45.38;23.10;;;1.30;99.90;;;;;;6117657;29;20055;-79
2022/01/27 13:18:27;;;;;;;42.13;22.20;;;0.30;99.90;;;;;;6101332;29;20036;-80
2022/01/27 13:21:34;;;;;;;44.05;22.95;;;-0.10;99.90;;;;;;6118283;28;20035;-79
2022/01/27 13:24:46;;;;;;;43.83;21.95;;;0.30;99.90;;;;;;6102780;29;20035;-79
2022/01/27 13:28:10;;;;;;;47.22;24.45;;;0.20;99.90;;;;;;6132131;29;20083;-80
2022/01/27 13:31:13;;;;;;;47.28;24.90;;;0.30;99.90;;;;;;6149651;29;20031;-80
2022/01/27 13:34:14;;;;;;;43.20;22.45;;;-0.40;99.90;;;;;;6100685;29;20123;-79
2022/01/27 13:37:26;;;;;;;41.67;21.75;;;2.90;99.90;;;;;;6101193;29;20027;-80
2022/01/27 13:44:09;;;;;;;39.65;22.13;;;0.40;99.90;;;;;;6108272;29;20630;-80
2022/01/27 13:47:10;;;;;;;41.15;21.20;;;0.40;99.90;;;;;;6132727;29;20063;-81
2022/01/27 13:50:15;;;;;;;41.78;21.92;;;0.50;99.90;;;;;;6132023;29;20031;-80
2022/01/27 13:53:16;;;;;;;39.47;21.02;;;0.60;99.90;;;;;;6131517;29;20445;-80
2022/01/27 13:56:17;;;;;;;40.22;21.38;;;0.70;99.90;;;;;;6132218;29;20039;-82
2022/01/27 13:59:22;;;;;;;40.72;21.45;;;2.10;99.90;;;;;;6115413;29;20118;-80
2022/01/27 14:02:33;;;;;;;39.05;21.08;;;0.90;99.90;;;;;;6132822;29;20430;-81
2022/01/27 14:05:33;;;;;;;39.53;19.55;;;1.00;99.90;;;;;;6117974;29;20541;-79
2022/01/27 14:08:44;;;;;;;39.00;20.65;;;1.40;99.90;;;;;;6132179;29;20027;-81
2022/01/27 14:11:45;;;;;;;38.95;21.27;;;1.60;99.90;;;;;;6114681;29;20142;-82
2022/01/27 14:14:48;;;;;;;37.90;21.17;;;2.50;99.90;;;;;;6131437;29;20478;-80
2022/01/27 14:17:56;;;;;;;38.67;21.25;;;2.80;99.90;;;;;;6099954;28;20038;-80
2022/01/27 14:20:58;;;;;;;37.00;20.25;;;0.80;99.90;;;;;;6099975;29;20039;-80
2022/01/27 14:24:12;;;;;;;38.15;20.95;;;0.90;99.90;;;;;;6131420;29;20027;-79
2022/01/27 14:27:12;;;;;;;38.15;21.40;;;1.60;99.90;;;;;;6116384;29;20202;-80
2022/01/27 14:30:16;;;;;;;41.30;22.02;;;1.80;99.90;;;;;;6099080;29;20019;-79
2022/01/27 14:33:17;;;;;;;37.17;20.58;;;2.40;99.90;;;;;;6115715;29;20479;-82
2022/01/27 14:36:18;;;;;;;41.72;21.42;;;2.60;99.90;;;;;;6114945;29;20114;-80
2022/01/27 14:39:19;;;;;;;40.83;22.20;;;0.80;99.90;;;;;;6099718;29;20039;-79
2022/01/27 14:42:23;;;;;;;48.40;23.47;;;2.30;99.90;;;;;;6099525;29;20433;-79
2022/01/27 14:45:25;;;;;;;40.85;22.58;;;0.90;99.90;;;;;;6100832;29;20458;-80
2022/01/27 14:48:26;;;;;;;42.53;21.85;;;1.50;99.90;;;;;;6099410;29;20031;-84
2022/01/27 14:51:29;;;;;;;40.55;21.75;;;0.90;99.90;;;;;;6130515;29;20039;-81
2022/01/27 14:54:30;;;;;;;39.35;22.00;;;0.70;99.90;;;;;;6116622;29;20417;-81
2022/01/27 14:57:30;;;;;;;41.38;21.80;;;1.00;99.90;;;;;;6114530;28;20043;-82
2022/01/27 15:00:31;;;;;;;41.10;21.60;;;1.00;99.90;;;;;;6115183;29;20045;-81
2022/01/27 15:03:32;;;;;;;39.78;21.35;;;1.70;99.90;;;;;;6098770;29;20114;-83
2022/01/27 15:06:32;;;;;;;39.20;19.25;;;1.10;99.90;;;;;;6113736;29;20445;-80
2022/01/27 15:09:33;;;;;;;39.55;19.20;;;1.50;99.90;;;;;;6113591;29;20054;-82
2022/01/27 15:12:34;;;;;;;40.17;21.50;;;0.70;99.90;;;;;;6130227;29;20035;-80
2022/01/27 15:19:00;;;;;;;39.40;20.35;;;1.20;99.90;;;;;;6119689;28;20438;-80
2022/01/27 15:22:01;;;;;;;39.28;20.60;;;1.30;99.90;;;;;;6100449;29;20023;-79
2022/01/27 15:25:01;;;;;;;39.85;21.15;;;1.20;99.90;;;;;;6098664;29;20058;-80
2022/01/27 15:28:02;;;;;;;36.55;19.58;;;1.40;99.90;;;;;;6114160;29;20063;-79
2022/01/27 15:31:03;;;;;;;38.17;21.73;;;1.20;99.90;;;;;;6113878;28;20031;-79
2022/01/27 15:34:03;;;;;;;36.92;21.15;;;0.80;99.90;;;;;;6130115;29;20043;-80
2022/01/27 15:37:04;;;;;;;37.30;20.13;;;1.20;99.90;;;;;;6113883;28;20038;-82
2022/01/27 15:40:11;;;;;;;43.28;22.17;;;1.10;99.90;;;;;;6114057;29;20528;-79
2022/01/27 15:43:11;;;;;;;34.33;19.77;;;1.10;99.90;;;;;;6130683;28;20027;-79
2022/01/27 15:46:14;;;;;;;35.80;20.83;;;1.10;99.90;;;;;;6097283;29;20126;-79
2022/01/27 15:49:15;;;;;;;37.58;21.65;;;1.20;99.90;;;;;;6128934;29;20035;-79
2022/01/27 15:52:15;;;;;;;38.30;21.13;;;1.30;99.90;;;;;;6113098;29;20053;-79
2022/01/27 15:55:16;;;;;;;39.40;20.85;;;1.20;99.90;;;;;;6129435;29;20051;-79
2022/01/27 15:58:17;;;;;;;37.53;21.00;;;1.40;99.90;;;;;;6113318;29;20031;-79
2022/01/27 16:01:17;;;;;;;36.92;19.83;;;1.20;99.90;;;;;;6113151;29;20486;-78
2022/01/27 16:04:18;;;;;;;40.10;21.70;;;1.30;99.90;;;;;;6128707;29;20141;-81
2022/01/27 16:07:18;;;;;;;38.33;20.52;;;1.20;99.90;;;;;;6129883;28;20050;-79
2022/01/27 16:10:20;;;;;;;40.05;20.63;;;1.10;99.90;;;;;;6106229;29;20098;-79
2022/01/27 16:13:21;;;;;;;40.60;22.50;;;1.00;99.90;;;;;;6106151;29;20079;-81
2022/01/27 16:16:21;;;;;;;35.95;21.25;;;0.90;99.90;;;;;;6121872;29;20082;-79
2022/01/27 16:19:22;;;;;;;39.85;22.33;;;1.00;99.90;;;;;;6121237;29;20031;-79
2022/01/27 16:22:27;;;;;;;45.25;23.35;;;1.00;99.90;;;;;;6121550;29;20032;-79
2022/01/27 16:25:27;;;;;;;82.78;41.17;;;0.90;99.90;;;;;;6105537;29;20090;-78
2022/01/27 16:28:29;;;;;;;68.68;30.30;;;0.80;99.90;;;;;;6120009;29;20023;-81